Time;durP1;ratioP1;P1;durP2;ratioP2;P2;SDS_P1;SDS_P2;PMS_P1;PMS_P2;Temp;Humidity;BMP_temperature;BMP_pressure;BME280_temperature;BME280_humidity;BME280_pressure;Samples;Min_cycle;Max_cycle;Signal;HPM_P1;HPM_P2
2021/11/12 00:13:06;;;;;;;124.87;32.10;;;1.60;99.90;;;;;;5056120;28;20373;-72
2021/11/12 00:15:40;;;;;;;165.97;32.50;;;1.70;99.90;;;;;;5056059;28;20027;-72
2021/11/12 00:18:07;;;;;;;83.35;31.55;;;1.70;99.90;;;;;;5055894;28;20056;-72
2021/11/12 00:20:33;;;;;;;154.83;32.07;;;1.70;99.90;;;;;;5056088;28;20029;-72
2021/11/12 00:22:59;;;;;;;149.57;33.53;;;1.70;99.90;;;;;;5055855;28;20037;-72
2021/11/12 00:25:25;;;;;;;154.47;33.23;;;1.70;99.90;;;;;;5055736;28;20025;-72
2021/11/12 00:27:50;;;;;;;200.50;35.27;;;1.70;99.90;;;;;;5055675;28;20427;-72
2021/11/12 00:30:51;;;;;;;228.90;35.33;;;1.70;99.90;;;;;;5055697;28;20032;-72
2021/11/12 00:36:18;;;;;;;130.13;31.93;;;1.70;99.90;;;;;;5055464;28;20035;-72
2021/11/12 00:41:22;;;;;;;172.67;31.97;;;1.70;99.90;;;;;;5055417;28;20082;-72
2021/11/12 00:43:51;;;;;;;286.60;34.10;;;1.70;99.90;;;;;;5054310;28;20051;-72
2021/11/12 00:49:33;;;;;;;119.03;32.67;;;1.70;99.90;;;;;;5055414;28;20055;-72
2021/11/12 00:51:51;;;;;;;253.53;35.10;;;1.70;99.90;;;;;;5049561;28;20052;-72
2021/11/12 00:54:18;;;;;;;207.37;32.47;;;1.70;99.90;;;;;;5055228;28;20377;-72
2021/11/12 00:56:44;;;;;;;205.27;32.33;;;1.70;99.90;;;;;;5055123;28;20025;-72
2021/11/12 00:59:10;;;;;;;208.87;34.27;;;1.70;99.90;;;;;;5055049;28;20462;-72
2021/11/12 01:01:38;;;;;;;124.87;32.80;;;1.80;99.90;;;;;;5055170;28;20091;-72
2021/11/12 01:04:07;;;;;;;176.87;34.70;;;1.80;99.90;;;;;;5053658;28;20112;-72
2021/11/12 01:06:35;;;;;;;194.30;34.50;;;1.80;99.90;;;;;;5055184;28;20021;-72
2021/11/12 01:09:03;;;;;;;197.20;35.23;;;1.80;99.90;;;;;;5055019;28;20029;-72
2021/11/12 01:11:29;;;;;;;190.80;34.67;;;1.80;99.90;;;;;;5053752;28;20079;-72
2021/11/12 01:13:55;;;;;;;117.20;31.43;;;1.80;99.90;;;;;;5054945;28;20013;-72
2021/11/12 01:16:21;;;;;;;72.50;28.63;;;1.80;99.90;;;;;;5054800;28;20100;-72
2021/11/12 01:18:48;;;;;;;134.17;28.30;;;1.90;99.90;;;;;;5054704;28;20439;-72
2021/11/12 01:21:14;;;;;;;210.60;30.90;;;1.90;99.90;;;;;;5054809;28;20029;-72
2021/11/12 01:23:43;;;;;;;195.20;29.40;;;1.90;99.90;;;;;;5054416;28;20033;-72
2021/11/12 01:26:10;;;;;;;217.13;29.97;;;1.90;99.90;;;;;;5054601;28;20385;-72
2021/11/12 01:28:36;;;;;;;198.33;29.97;;;1.90;99.90;;;;;;5054581;28;20390;-72
2021/11/12 01:31:02;;;;;;;177.53;32.17;;;1.80;99.90;;;;;;5053079;28;20029;-72
2021/11/12 01:33:29;;;;;;;140.57;30.23;;;1.80;99.90;;;;;;5054429;28;20121;-72
2021/11/12 01:36:00;;;;;;;307.13;34.33;;;1.80;99.90;;;;;;5054606;28;20108;-72
2021/11/12 01:38:26;;;;;;;192.90;31.57;;;1.80;99.90;;;;;;5054418;28;20040;-72
2021/11/12 01:40:52;;;;;;;205.63;33.27;;;1.80;99.90;;;;;;5054704;28;20027;-72
2021/11/12 01:43:24;;;;;;;296.43;35.23;;;1.80;99.90;;;;;;5054183;28;20104;-72
2021/11/12 01:53:58;;;;;;;374.27;35.37;;;1.80;99.90;;;;;;5054075;28;20044;-72
2021/11/12 01:56:32;;;;;;;178.27;32.23;;;1.80;99.90;;;;;;5054066;28;20021;-72
2021/11/12 02:01:38;;;;;;;216.83;30.90;;;1.80;99.90;;;;;;5054043;28;20086;-72
2021/11/12 02:04:06;;;;;;;183.93;30.03;;;1.80;99.90;;;;;;5053870;28;20040;-72
2021/11/12 02:06:33;;;;;;;196.47;30.53;;;1.80;99.90;;;;;;5053035;28;20033;-72
2021/11/12 02:08:59;;;;;;;182.37;27.87;;;1.80;99.90;;;;;;5053620;28;20107;-72
2021/11/12 02:11:25;;;;;;;174.13;27.17;;;1.80;99.90;;;;;;5053978;28;20066;-72
2021/11/12 02:13:51;;;;;;;211.67;27.87;;;1.80;99.90;;;;;;5053609;28;20053;-72
2021/11/12 02:16:24;;;;;;;169.10;27.43;;;1.70;99.90;;;;;;5053508;28;20078;-72
2021/11/12 02:18:51;;;;;;;203.03;28.37;;;1.70;99.90;;;;;;5053535;28;20090;-72
2021/11/12 02:21:42;;;;;;;203.17;28.73;;;1.70;99.90;;;;;;5053581;28;20035;-72
2021/11/12 02:24:11;;;;;;;291.57;29.73;;;1.70;99.90;;;;;;5053487;28;20029;-72
2021/11/12 02:26:41;;;;;;;238.10;27.93;;;1.60;99.90;;;;;;5053473;28;20063;-72
2021/11/12 02:29:10;;;;;;;222.00;30.17;;;1.60;99.90;;;;;;5053388;28;20024;-72
2021/11/12 02:31:36;;;;;;;260.57;29.87;;;1.50;99.90;;;;;;5053431;28;20025;-72
2021/11/12 02:34:09;;;;;;;269.40;30.47;;;1.50;99.90;;;;;;5053295;28;20032;-72
2021/11/12 02:36:35;;;;;;;289.07;31.40;;;1.50;99.90;;;;;;5053448;28;20100;-72
2021/11/12 02:39:03;;;;;;;261.37;30.57;;;1.50;99.90;;;;;;5053110;28;20028;-72
2021/11/12 02:41:28;;;;;;;190.10;30.00;;;1.50;99.90;;;;;;5053046;28;20048;-72
2021/11/12 02:43:54;;;;;;;155.70;29.70;;;1.50;99.90;;;;;;5053161;28;20060;-72
2021/11/12 02:46:25;;;;;;;202.27;31.57;;;1.50;99.90;;;;;;5053113;28;20466;-72
2021/11/12 02:48:51;;;;;;;277.47;33.60;;;1.50;99.90;;;;;;5053494;28;20029;-72
2021/11/12 02:51:25;;;;;;;231.13;33.43;;;1.50;99.90;;;;;;5053158;28;20037;-72
2021/11/12 02:53:53;;;;;;;207.00;33.30;;;1.50;99.90;;;;;;5053013;28;20100;-72
2021/11/12 02:56:29;;;;;;;243.43;34.87;;;1.50;99.90;;;;;;5053154;28;20056;-72
2021/11/12 02:58:59;;;;;;;217.47;33.13;;;1.50;99.90;;;;;;5053064;28;20147;-72
2021/11/12 03:01:26;;;;;;;236.90;33.90;;;1.50;99.90;;;;;;5052854;28;20531;-72
2021/11/12 03:03:53;;;;;;;253.47;35.60;;;1.50;99.90;;;;;;5052841;28;20045;-72
2021/11/12 03:06:20;;;;;;;293.87;40.17;;;1.50;99.90;;;;;;5050844;28;20035;-72
2021/11/12 03:08:46;;;;;;;151.37;33.63;;;1.50;99.90;;;;;;5052868;28;20073;-72
2021/11/12 03:11:12;;;;;;;167.87;36.50;;;1.50;99.90;;;;;;5052922;28;20069;-72
2021/11/12 03:13:38;;;;;;;255.33;40.07;;;1.60;99.90;;;;;;5052927;28;20028;-72
2021/11/12 03:16:05;;;;;;;238.03;38.17;;;1.60;99.90;;;;;;5052785;28;20351;-72
2021/11/12 03:18:31;;;;;;;177.03;37.63;;;1.60;99.90;;;;;;5052720;28;20492;-72
2021/11/12 03:21:00;;;;;;;210.03;38.43;;;1.60;99.90;;;;;;5052611;28;20025;-72
2021/11/12 03:23:39;;;;;;;149.00;36.67;;;1.60;99.90;;;;;;5052461;28;20021;-72
2021/11/12 03:26:23;;;;;;;229.20;38.37;;;1.70;99.90;;;;;;5052657;28;20025;-71
2021/11/12 04:01:31;;;;;;;193.50;31.93;;;1.70;99.90;;;;;;5047212;28;20112;-72
2021/11/12 04:07:06;;;;;;;132.27;35.67;;;1.80;99.90;;;;;;5053012;28;20068;-72
2021/11/12 04:18:03;;;;;;;208.50;33.03;;;1.70;99.90;;;;;;5054078;28;20159;-72
2021/11/12 04:21:06;;;;;;;258.33;31.77;;;1.70;99.90;;;;;;5056142;28;20024;-72
2021/11/12 05:02:45;;;;;;;72.43;23.80;;;1.60;99.90;;;;;;5055806;28;20033;-72
2021/11/12 05:45:14;;;;;;;166.47;23.37;;;1.30;99.90;;;;;;5054613;28;20105;-73
2021/11/12 05:50:38;;;;;;;171.33;23.20;;;1.30;99.90;;;;;;5048881;28;20035;-73
2021/11/12 05:55:49;;;;;;;167.97;22.33;;;1.30;99.90;;;;;;5054640;28;20155;-73
2021/11/12 05:58:15;;;;;;;211.73;25.50;;;1.20;99.90;;;;;;5053023;28;20017;-73
2021/11/12 06:00:40;;;;;;;226.77;28.27;;;1.20;99.90;;;;;;5054348;28;20028;-72
2021/11/12 06:03:06;;;;;;;296.57;78.07;;;1.20;99.90;;;;;;5054215;28;20029;-73
2021/11/12 06:05:32;;;;;;;430.90;96.07;;;1.20;99.90;;;;;;5054346;28;20021;-73
2021/11/12 06:07:58;;;;;;;236.50;31.07;;;1.20;99.90;;;;;;5053942;28;20025;-77
2021/11/12 06:10:23;;;;;;;337.93;80.13;;;1.20;99.90;;;;;;5054394;28;20425;-76
2021/11/12 06:12:49;;;;;;;272.00;53.63;;;1.10;99.90;;;;;;5054163;28;20032;-76
2021/11/12 06:15:15;;;;;;;218.37;48.60;;;1.10;99.90;;;;;;5053958;28;20051;-76
2021/11/12 06:17:42;;;;;;;418.40;152.97;;;1.10;99.90;;;;;;5053977;28;20067;-76
2021/11/12 06:20:10;;;;;;;208.40;53.47;;;1.10;99.90;;;;;;5053975;28;20082;-76
2021/11/12 06:22:36;;;;;;;164.87;23.63;;;1.10;99.90;;;;;;5053684;28;20410;-76
2021/11/12 06:25:03;;;;;;;236.23;67.57;;;1.10;99.90;;;;;;5053929;28;20052;-76
2021/11/12 06:27:29;;;;;;;175.63;41.97;;;1.20;99.90;;;;;;5053808;28;20029;-76
2021/11/12 06:29:54;;;;;;;148.10;26.77;;;1.20;99.90;;;;;;5053622;28;20021;-76
2021/11/12 06:32:20;;;;;;;139.50;24.53;;;1.20;99.90;;;;;;5053478;28;20029;-76
2021/11/12 06:34:47;;;;;;;110.30;22.77;;;1.20;99.90;;;;;;5053810;28;20025;-76
2021/11/12 06:37:13;;;;;;;126.30;23.60;;;1.20;99.90;;;;;;5068857;28;20032;-76
2021/11/12 06:39:39;;;;;;;95.93;22.50;;;1.30;99.90;;;;;;5054173;28;20025;-76
2021/11/12 06:42:25;;;;;;;135.20;23.70;;;1.30;99.90;;;;;;5049665;28;20048;-77
2021/11/12 06:50:12;;;;;;;119.27;21.77;;;1.30;99.90;;;;;;5053978;28;20378;-75
2021/11/12 06:52:39;;;;;;;132.13;24.48;;;1.30;99.90;;;;;;5053477;28;20117;-75
2021/11/12 06:55:05;;;;;;;128.60;24.20;;;1.30;99.90;;;;;;5052220;28;20155;-76
2021/11/12 06:57:31;;;;;;;129.07;30.87;;;1.30;99.90;;;;;;5053234;28;20028;-75
2021/11/12 06:59:57;;;;;;;137.67;28.13;;;1.30;99.90;;;;;;5056975;28;20024;-76
2021/11/12 07:02:24;;;;;;;128.70;22.57;;;1.30;99.90;;;;;;5073057;28;20031;-76
2021/11/12 07:04:50;;;;;;;152.17;22.33;;;1.30;99.90;;;;;;5070142;28;20107;-76
2021/11/12 07:07:16;;;;;;;140.50;22.80;;;1.30;99.90;;;;;;5054000;28;20025;-76
2021/11/12 07:09:42;;;;;;;103.23;23.17;;;1.30;99.90;;;;;;5055976;28;20484;-76
2021/11/12 07:12:09;;;;;;;102.80;22.00;;;1.40;99.90;;;;;;5059048;28;20017;-76
2021/11/12 07:14:35;;;;;;;150.03;37.67;;;1.40;99.90;;;;;;5058178;28;20018;-76
2021/11/12 07:17:02;;;;;;;122.10;22.73;;;1.30;99.90;;;;;;5057478;28;20059;-76
2021/11/12 07:19:28;;;;;;;143.13;23.53;;;1.30;99.90;;;;;;5053326;28;20162;-75
2021/11/12 07:21:57;;;;;;;124.67;21.57;;;1.30;99.90;;;;;;5053165;28;20409;-76
2021/11/12 07:24:24;;;;;;;120.53;21.77;;;1.40;99.90;;;;;;5052952;28;20025;-75
2021/11/12 07:26:49;;;;;;;108.10;21.00;;;1.30;99.90;;;;;;5053022;28;20454;-76
2021/11/12 07:29:17;;;;;;;102.57;25.47;;;1.30;99.90;;;;;;5053028;28;20115;-75
2021/11/12 07:31:44;;;;;;;125.10;24.17;;;1.30;99.90;;;;;;5052921;28;20024;-76
2021/11/12 07:34:10;;;;;;;113.13;21.43;;;1.30;99.90;;;;;;5052670;28;20075;-75
2021/11/12 07:36:38;;;;;;;123.27;22.77;;;1.30;99.90;;;;;;5052771;28;20424;-75
2021/11/12 07:39:19;;;;;;;164.33;25.87;;;1.40;99.90;;;;;;5051447;28;20021;-75
2021/11/12 07:47:15;;;;;;;93.68;21.15;;;1.40;99.90;;;;;;5053168;28;20028;-75
2021/11/12 07:50:00;;;;;;;78.70;21.43;;;1.40;99.90;;;;;;5052758;28;20036;-75
2021/11/12 07:52:29;;;;;;;83.97;21.25;;;1.50;99.90;;;;;;5054141;28;20139;-76
2021/11/12 07:54:56;;;;;;;82.23;19.97;;;1.50;99.90;;;;;;5056651;28;20021;-75
2021/11/12 07:57:22;;;;;;;76.60;19.90;;;1.50;99.90;;;;;;5056444;28;20025;-75
2021/11/12 07:59:47;;;;;;;57.30;18.80;;;1.50;99.90;;;;;;5048151;28;20091;-75
2021/11/12 08:02:17;;;;;;;75.00;20.57;;;1.50;99.90;;;;;;5042804;28;20064;-75
2021/11/12 08:04:45;;;;;;;83.37;20.03;;;1.60;99.90;;;;;;5054265;28;20040;-76
2021/11/12 08:07:11;;;;;;;78.33;18.93;;;1.60;99.90;;;;;;5043090;28;20462;-75
2021/11/12 08:09:40;;;;;;;86.10;21.50;;;1.60;99.90;;;;;;5042470;28;20359;-75
2021/11/12 08:12:09;;;;;;;69.60;19.40;;;1.60;99.90;;;;;;5046771;28;20021;-75
2021/11/12 08:30:39;;;;;;;62.57;22.17;;;1.80;99.90;;;;;;5037027;28;20425;-77
2021/11/12 08:33:18;;;;;;;78.83;21.10;;;1.80;99.90;;;;;;5036528;28;20026;-77
2021/11/12 08:41:58;;;;;;;86.20;19.67;;;1.90;99.90;;;;;;4975258;28;20041;-77
2021/11/12 08:46:52;;;;;;;63.27;18.63;;;2.00;99.90;;;;;;5015795;28;20519;-77
2021/11/12 08:49:25;;;;;;;127.17;20.37;;;2.00;99.90;;;;;;5036503;28;20163;-77
2021/11/12 08:51:51;;;;;;;67.50;20.97;;;1.90;99.90;;;;;;5036605;28;20043;-78
2021/11/12 08:54:23;;;;;;;67.67;20.43;;;1.90;99.90;;;;;;5037269;28;20478;-78
2021/11/12 08:56:49;;;;;;;50.23;19.27;;;2.00;99.90;;;;;;5040558;28;20021;-74
2021/11/12 08:59:15;;;;;;;59.87;19.07;;;2.00;99.90;;;;;;5040072;28;20025;-74
2021/11/12 09:01:41;;;;;;;62.30;19.30;;;2.10;99.90;;;;;;5040033;28;20064;-74
2021/11/12 09:04:07;;;;;;;59.67;18.93;;;2.10;99.90;;;;;;5040220;28;20032;-74
2021/11/12 09:06:33;;;;;;;65.73;18.30;;;2.20;99.90;;;;;;5041353;28;20377;-74
2021/11/12 09:08:58;;;;;;;42.83;18.37;;;2.20;99.90;;;;;;5043417;28;20026;-74
2021/11/12 09:11:24;;;;;;;42.60;17.23;;;2.20;99.90;;;;;;5041097;28;20029;-76
2021/11/12 09:13:54;;;;;;;53.17;20.23;;;2.20;99.90;;;;;;5040356;28;20032;-76
2021/11/12 09:16:28;;;;;;;47.50;19.70;;;2.30;99.90;;;;;;5043165;28;20053;-76
2021/11/12 09:18:54;;;;;;;38.58;16.77;;;2.30;99.90;;;;;;5046421;28;20029;-76
2021/11/12 09:21:19;;;;;;;54.60;18.13;;;2.30;99.90;;;;;;5040131;28;20034;-76
2021/11/12 09:23:45;;;;;;;40.30;19.37;;;2.30;99.90;;;;;;5033958;28;20033;-76
2021/11/12 09:26:12;;;;;;;32.57;19.13;;;2.40;99.90;;;;;;5035254;28;20096;-76
2021/11/12 09:28:37;;;;;;;45.20;16.70;;;2.40;99.90;;;;;;5037059;28;20044;-75
2021/11/12 09:31:05;;;;;;;55.83;16.90;;;2.40;99.90;;;;;;5038412;28;20033;-76
2021/11/12 09:33:30;;;;;;;56.37;16.90;;;2.40;99.90;;;;;;5038999;28;20030;-76
2021/11/12 09:35:57;;;;;;;58.77;18.17;;;2.50;99.90;;;;;;5041456;28;20031;-76
2021/11/12 09:38:24;;;;;;;59.60;17.83;;;2.50;99.90;;;;;;5054885;28;20063;-76
2021/11/12 09:40:50;;;;;;;34.60;18.43;;;2.50;99.90;;;;;;5050510;28;20044;-76
2021/11/12 09:43:17;;;;;;;41.30;18.33;;;2.50;99.90;;;;;;5042677;28;20036;-78
2021/11/12 09:45:42;;;;;;;25.97;17.50;;;2.60;99.90;;;;;;5037565;28;20037;-78
2021/11/12 09:48:10;;;;;;;31.77;19.17;;;2.60;99.90;;;;;;5035555;28;20044;-78
2021/11/12 09:50:36;;;;;;;40.40;21.80;;;2.70;99.90;;;;;;5035446;28;20040;-78
2021/11/12 09:53:03;;;;;;;76.27;39.10;;;2.70;99.90;;;;;;5035327;28;20039;-78
2021/11/12 09:55:30;;;;;;;26.17;19.93;;;2.70;99.90;;;;;;5035832;28;20095;-78
2021/11/12 09:57:56;;;;;;;27.27;18.43;;;2.70;99.90;;;;;;5035539;28;21510;-78
2021/11/12 10:00:26;;;;;;;28.00;18.17;;;2.80;99.90;;;;;;5034156;28;20152;-78
2021/11/12 10:02:53;;;;;;;29.90;17.20;;;2.90;99.90;;;;;;5036371;28;20033;-77
2021/11/12 10:05:42;;;;;;;29.30;17.33;;;2.90;99.90;;;;;;5035918;28;20029;-78
2021/11/12 10:08:25;;;;;;;27.00;20.53;;;3.00;99.90;;;;;;5035846;28;20037;-78
2021/11/12 10:11:03;;;;;;;32.63;19.80;;;3.00;99.90;;;;;;5037024;28;20037;-79
2021/11/12 10:13:35;;;;;;;33.43;20.73;;;3.00;99.90;;;;;;5037579;28;20041;-78
2021/11/12 10:16:17;;;;;;;26.40;19.23;;;3.00;99.90;;;;;;5038230;28;20032;-75
2021/11/12 10:19:02;;;;;;;44.50;26.63;;;3.10;99.90;;;;;;5036451;28;20082;-79
2021/11/12 10:21:50;;;;;;;27.90;19.05;;;3.10;99.90;;;;;;5041036;28;20071;-79
2021/11/12 10:24:29;;;;;;;21.47;16.13;;;3.10;99.90;;;;;;5037782;28;20103;-78
2021/11/12 10:26:58;;;;;;;29.90;19.03;;;3.10;99.90;;;;;;5054215;28;20507;-78
2021/11/12 10:29:27;;;;;;;28.47;21.17;;;3.10;99.90;;;;;;5038778;28;20098;-78
2021/11/12 10:31:59;;;;;;;23.60;18.10;;;3.10;99.90;;;;;;5035720;28;20090;-79
2021/11/12 10:34:30;;;;;;;24.27;16.87;;;3.20;99.90;;;;;;5049565;28;20492;-78
2021/11/12 10:37:04;;;;;;;25.80;17.60;;;3.20;99.90;;;;;;5053931;28;20025;-78
2021/11/12 10:39:35;;;;;;;24.30;16.63;;;3.20;99.90;;;;;;5051145;28;20025;-78
2021/11/12 10:42:04;;;;;;;25.60;16.37;;;3.20;99.90;;;;;;5048553;28;20029;-78
2021/11/12 10:44:33;;;;;;;26.47;18.00;;;3.20;99.90;;;;;;5044194;28;20025;-77
2021/11/12 10:47:04;;;;;;;27.37;17.50;;;3.30;99.90;;;;;;5036894;28;20113;-78
2021/11/12 10:49:31;;;;;;;24.10;17.07;;;3.30;99.90;;;;;;5045307;28;20029;-78
2021/11/12 10:52:02;;;;;;;25.87;17.00;;;3.40;99.90;;;;;;5052297;28;20044;-78
2021/11/12 10:54:58;;;;;;;24.77;17.20;;;3.50;99.90;;;;;;5047355;28;20021;-78
2021/11/12 10:57:40;;;;;;;22.60;16.05;;;3.50;99.90;;;;;;5052179;28;20025;-78
2021/11/12 11:00:20;;;;;;;21.83;15.83;;;3.40;99.90;;;;;;5051464;28;20436;-74
2021/11/12 11:03:10;;;;;;;22.40;16.83;;;3.40;99.90;;;;;;5051193;28;20066;-75
2021/11/12 11:05:42;;;;;;;21.97;17.43;;;3.50;99.90;;;;;;5045563;28;20037;-75
2021/11/12 11:08:34;;;;;;;22.13;15.83;;;3.50;99.90;;;;;;5047250;28;20134;-79
2021/11/12 11:11:05;;;;;;;22.57;16.03;;;3.60;99.90;;;;;;5033054;28;20025;-79
2021/11/12 11:13:37;;;;;;;30.13;19.80;;;3.70;99.90;;;;;;5032077;28;20021;-80
2021/11/12 11:16:06;;;;;;;26.23;17.80;;;3.70;99.90;;;;;;5044556;28;20025;-79
2021/11/12 11:18:42;;;;;;;21.67;16.07;;;3.70;99.90;;;;;;5042507;28;20064;-79
2021/11/12 11:23:55;;;;;;;30.77;25.33;;;3.80;99.90;;;;;;5051754;28;20111;-79
2021/11/12 11:26:23;;;;;;;21.60;16.20;;;3.80;99.90;;;;;;5040172;28;20128;-76
2021/11/12 11:28:55;;;;;;;26.07;18.17;;;3.80;99.90;;;;;;5035775;28;20017;-73
2021/11/12 11:31:22;;;;;;;23.47;16.93;;;3.80;99.90;;;;;;5037402;28;20029;-73
2021/11/12 11:33:49;;;;;;;29.87;21.03;;;3.70;99.90;;;;;;5036974;28;20040;-73
2021/11/12 11:36:18;;;;;;;24.97;18.07;;;3.70;99.90;;;;;;5052165;28;20426;-73
2021/11/12 11:38:44;;;;;;;25.67;16.23;;;3.70;99.90;;;;;;5038685;28;21142;-73
2021/11/12 11:41:12;;;;;;;24.37;16.30;;;3.70;99.90;;;;;;5040408;28;20026;-72
2021/11/12 11:43:39;;;;;;;25.13;18.13;;;3.70;99.90;;;;;;5039923;28;20052;-74
2021/11/12 11:46:11;;;;;;;26.83;17.83;;;3.70;99.90;;;;;;5033527;28;20024;-74
2021/11/12 11:48:44;;;;;;;23.73;17.60;;;3.70;99.90;;;;;;5034160;28;20040;-74
2021/11/12 11:51:15;;;;;;;22.53;16.90;;;3.80;99.90;;;;;;5034025;28;20032;-74
2021/11/12 11:53:44;;;;;;;26.63;17.37;;;3.80;99.90;;;;;;5034352;28;20021;-73
2021/11/12 11:56:27;;;;;;;23.93;18.03;;;3.80;99.90;;;;;;5046581;28;20045;-73
2021/11/12 11:58:56;;;;;;;24.30;15.57;;;3.80;99.90;;;;;;5047026;28;20064;-73
2021/11/12 12:01:22;;;;;;;25.53;18.13;;;3.80;99.90;;;;;;5045831;28;20028;-74
2021/11/12 12:04:07;;;;;;;22.27;16.00;;;3.90;99.90;;;;;;5048365;28;20032;-73
2021/11/12 12:06:34;;;;;;;23.50;17.10;;;3.80;99.90;;;;;;5047824;28;20025;-73
2021/11/12 12:09:09;;;;;;;24.03;16.57;;;3.80;99.90;;;;;;5047313;28;20044;-74
2021/11/12 12:11:38;;;;;;;22.15;16.52;;;3.80;99.90;;;;;;5048261;28;20032;-73
2021/11/12 12:14:25;;;;;;;24.23;16.43;;;3.80;99.90;;;;;;5048324;28;20021;-73
2021/11/12 12:17:23;;;;;;;22.87;17.17;;;3.80;99.90;;;;;;5045219;28;20129;-73
2021/11/12 13:23:28;;;;;;;21.27;16.43;;;3.80;99.90;;;;;;5039584;28;20044;-73
2021/11/12 13:26:05;;;;;;;23.03;17.20;;;3.80;99.90;;;;;;5036867;28;20041;-74
2021/11/12 13:28:47;;;;;;;26.17;16.63;;;3.70;99.90;;;;;;5038093;28;20029;-76
2021/11/12 13:31:21;;;;;;;25.30;16.70;;;3.80;99.90;;;;;;5040798;28;20040;-76
2021/11/12 13:33:48;;;;;;;21.40;16.20;;;3.80;99.90;;;;;;5041791;28;20492;-76
2021/11/12 13:36:30;;;;;;;29.07;19.40;;;3.80;99.90;;;;;;5039913;28;20116;-76
2021/11/12 13:39:06;;;;;;;26.67;18.53;;;3.80;99.90;;;;;;5041984;28;20030;-75
2021/11/12 13:41:40;;;;;;;27.00;17.97;;;3.80;99.90;;;;;;5040130;28;20032;-75
2021/11/12 13:44:08;;;;;;;34.10;20.13;;;3.80;99.90;;;;;;5040566;28;20029;-76
2021/11/12 13:46:43;;;;;;;28.03;19.00;;;3.80;99.90;;;;;;5043732;28;20029;-76
2021/11/12 13:49:08;;;;;;;29.50;18.13;;;3.70;99.90;;;;;;5039587;28;20056;-77
2021/11/12 13:51:34;;;;;;;27.93;19.53;;;3.80;99.90;;;;;;5045323;28;20021;-76
2021/11/12 13:54:04;;;;;;;26.23;18.83;;;3.80;99.90;;;;;;5043630;28;20114;-77
2021/11/12 13:56:34;;;;;;;30.00;20.00;;;3.80;99.90;;;;;;5053216;28;20029;-77
2021/11/12 13:59:05;;;;;;;27.03;19.00;;;3.80;99.90;;;;;;5041067;28;20033;-77
2021/11/12 14:01:33;;;;;;;26.23;19.33;;;3.80;99.90;;;;;;5045229;28;20041;-77
2021/11/12 14:04:00;;;;;;;29.27;19.50;;;3.70;99.90;;;;;;5044679;28;20535;-77
2021/11/12 14:06:34;;;;;;;28.33;19.43;;;3.80;99.90;;;;;;5045079;28;20092;-77
2021/11/12 14:09:03;;;;;;;37.40;22.47;;;3.80;99.90;;;;;;5039118;28;20033;-77
2021/11/12 14:11:31;;;;;;;31.40;21.17;;;3.80;99.90;;;;;;5036477;28;20029;-76
2021/11/12 14:14:02;;;;;;;30.77;21.93;;;3.80;99.90;;;;;;5037257;28;20402;-76
2021/11/12 14:17:00;;;;;;;29.53;20.30;;;3.80;99.90;;;;;;5036255;28;20036;-76
2021/11/12 14:19:49;;;;;;;32.87;19.67;;;3.80;99.90;;;;;;5037758;28;20127;-76
2021/11/12 14:22:33;;;;;;;30.27;19.80;;;3.80;99.90;;;;;;5036309;28;20029;-76
2021/11/12 14:25:24;;;;;;;29.10;19.57;;;3.80;99.90;;;;;;5037237;28;20044;-76
2021/11/12 14:28:48;;;;;;;29.53;19.67;;;3.70;99.90;;;;;;5038137;28;20029;-76
2021/11/12 14:38:49;;;;;;;36.23;21.53;;;3.70;99.90;;;;;;5035632;28;20462;-77
2021/11/12 14:46:59;;;;;;;35.33;21.23;;;3.70;99.90;;;;;;5035262;28;20041;-77
2021/11/12 14:49:31;;;;;;;41.80;21.40;;;3.70;99.90;;;;;;5035057;28;20097;-77
2021/11/12 14:52:07;;;;;;;37.00;22.57;;;3.60;99.90;;;;;;5040947;28;20033;-77
2021/11/12 14:54:46;;;;;;;34.47;23.57;;;3.60;99.90;;;;;;5036094;28;20029;-77
2021/11/12 14:59:49;;;;;;;38.00;23.90;;;3.60;99.90;;;;;;5035830;28;20456;-76
2021/11/12 15:02:15;;;;;;;37.60;24.03;;;3.60;99.90;;;;;;5036368;28;20056;-76
2021/11/12 15:04:41;;;;;;;38.33;26.17;;;3.60;99.90;;;;;;5036019;28;20460;-77
2021/11/12 15:07:08;;;;;;;38.00;24.53;;;3.60;99.90;;;;;;5035299;28;20366;-77
2021/11/12 15:09:36;;;;;;;36.00;26.17;;;3.60;99.90;;;;;;5035711;28;20040;-77
2021/11/12 15:12:06;;;;;;;40.80;29.27;;;3.60;99.90;;;;;;5035933;28;20033;-78
2021/11/12 15:14:38;;;;;;;33.80;24.47;;;3.60;99.90;;;;;;5036166;28;20529;-78
2021/11/12 15:17:06;;;;;;;39.07;24.60;;;3.60;99.90;;;;;;5035968;28;20132;-78
2021/11/12 15:19:34;;;;;;;39.60;26.03;;;3.60;99.90;;;;;;5036257;28;20041;-78
2021/11/12 15:27:22;;;;;;;39.60;26.00;;;3.60;99.90;;;;;;5037110;28;20148;-78
2021/11/12 15:29:54;;;;;;;38.37;25.73;;;3.60;99.90;;;;;;5036244;28;20028;-75
2021/11/12 15:32:26;;;;;;;38.70;25.73;;;3.60;99.90;;;;;;5035895;28;20033;-74
2021/11/12 15:35:07;;;;;;;42.37;25.23;;;3.60;99.90;;;;;;5035588;28;20401;-75
2021/11/12 15:40:26;;;;;;;35.00;22.83;;;3.60;99.90;;;;;;5037559;28;20025;-75
2021/11/12 15:48:10;;;;;;;36.13;22.60;;;3.60;99.90;;;;;;5021195;28;20053;-74
2021/11/12 15:58:33;;;;;;;36.57;24.23;;;3.50;99.90;;;;;;5023863;28;20100;-75
2021/11/12 16:13:44;;;;;;;41.42;26.33;;;3.60;99.90;;;;;;5023346;28;20036;-74
2021/11/12 16:26:19;;;;;;;41.67;26.57;;;3.60;99.90;;;;;;5029466;28;20075;-74
2021/11/12 16:29:34;;;;;;;45.67;25.30;;;3.60;99.90;;;;;;5027684;28;20040;-75
2021/11/12 16:31:37;;;;;;;41.53;25.37;;;3.60;99.90;;;;;;5022424;28;21348;-74
2021/11/12 16:34:09;;;;;;;38.47;24.83;;;3.70;99.90;;;;;;5040662;28;20036;-74
2021/11/12 16:36:40;;;;;;;41.57;24.97;;;3.70;99.90;;;;;;5025830;28;20739;-74
2021/11/12 16:39:07;;;;;;;35.90;23.73;;;3.70;99.90;;;;;;5025061;28;20107;-75
2021/11/12 16:41:34;;;;;;;39.40;23.20;;;3.70;99.90;;;;;;5045875;22;20049;-74
2021/11/12 16:49:29;;;;;;;38.72;26.42;;;3.70;99.90;;;;;;5022658;28;20032;-73
2021/11/12 16:52:01;;;;;;;43.37;26.63;;;3.70;99.90;;;;;;5024648;28;20056;-74
2021/11/12 16:54:33;;;;;;;38.97;26.33;;;3.70;99.90;;;;;;5022920;28;20028;-74
2021/11/12 16:57:27;;;;;;;41.80;25.53;;;3.70;99.90;;;;;;5027599;28;20022;-74
2021/11/12 17:05:49;;;;;;;41.33;23.97;;;3.70;99.90;;;;;;5031826;28;20113;-77
2021/11/12 17:08:34;;;;;;;36.03;23.57;;;3.70;99.90;;;;;;5024172;28;20492;-72
2021/11/12 17:19:29;;;;;;;45.83;25.43;;;3.70;99.90;;;;;;5018992;28;20488;-74
2021/11/12 17:46:02;;;;;;;41.77;26.93;;;3.70;99.90;;;;;;5017995;28;20493;-76
2021/11/12 17:48:33;;;;;;;44.97;26.30;;;3.70;99.90;;;;;;5029008;28;20052;-76
2021/11/12 17:51:12;;;;;;;54.10;27.70;;;3.70;99.90;;;;;;5028493;28;20032;-76
2021/11/12 18:04:21;;;;;;;73.93;26.87;;;3.70;99.90;;;;;;5031470;28;20032;-76
2021/11/12 18:20:25;;;;;;;74.32;27.33;;;3.70;99.90;;;;;;5032416;28;20021;-73
2021/11/12 21:48:15;;;;;;;30.97;18.53;;;3.30;99.90;;;;;;5020770;28;20442;-73
2021/11/12 21:50:42;;;;;;;36.43;19.00;;;3.30;99.90;;;;;;5021487;28;20030;-73
2021/11/12 21:53:07;;;;;;;37.03;19.20;;;3.30;99.90;;;;;;5021012;28;20037;-72
2021/11/12 21:55:33;;;;;;;30.83;18.23;;;3.30;99.90;;;;;;5032836;28;20034;-73
2021/11/12 21:58:00;;;;;;;28.43;18.90;;;3.30;99.90;;;;;;5033369;28;20022;-73
2021/11/12 22:00:27;;;;;;;35.57;19.53;;;3.30;99.90;;;;;;5033731;28;20034;-73
2021/11/12 22:02:54;;;;;;;27.93;18.80;;;3.30;99.90;;;;;;5033400;28;20423;-73
2021/11/12 22:05:19;;;;;;;38.90;19.63;;;3.30;99.90;;;;;;5048150;28;20033;-73
2021/11/12 22:07:45;;;;;;;47.10;20.97;;;3.30;99.90;;;;;;5032485;28;20044;-72
2021/11/12 22:10:11;;;;;;;41.37;19.47;;;3.40;99.90;;;;;;5048287;28;20033;-72
2021/11/12 22:12:37;;;;;;;33.67;19.57;;;3.40;99.90;;;;;;5032865;28;20079;-72
2021/11/12 22:15:05;;;;;;;35.07;20.27;;;3.40;99.90;;;;;;5031689;28;20030;-73
2021/11/12 22:17:34;;;;;;;32.27;20.53;;;3.40;99.90;;;;;;5033274;28;20168;-73
2021/11/12 22:20:02;;;;;;;41.17;20.33;;;3.40;99.90;;;;;;5033161;28;20036;-73
2021/11/12 22:22:28;;;;;;;33.10;20.43;;;3.40;99.90;;;;;;5033075;28;20484;-73
2021/11/12 22:24:53;;;;;;;39.37;19.73;;;3.40;99.90;;;;;;5033035;28;20136;-73
2021/11/12 22:27:19;;;;;;;34.40;19.37;;;3.40;99.90;;;;;;5032641;28;20030;-73
2021/11/12 22:29:44;;;;;;;40.13;20.27;;;3.40;99.90;;;;;;5032652;28;20351;-73
2021/11/12 22:32:10;;;;;;;34.73;19.47;;;3.40;99.90;;;;;;5032494;28;20159;-73
2021/11/12 22:34:36;;;;;;;35.83;19.70;;;3.50;99.90;;;;;;5032549;28;20473;-73
2021/11/12 22:37:01;;;;;;;50.83;19.87;;;3.40;99.90;;;;;;5032281;28;20032;-72
2021/11/12 22:39:27;;;;;;;34.53;18.90;;;3.40;99.90;;;;;;5047913;28;20105;-73
2021/11/12 22:41:53;;;;;;;34.37;19.43;;;3.50;99.90;;;;;;5032020;28;20379;-73
2021/11/12 22:44:19;;;;;;;45.17;19.70;;;3.50;99.90;;;;;;5032519;28;20113;-73